Time;durP1;ratioP1;P1;durP2;ratioP2;P2;SDS_P1;SDS_P2;PMS_P1;PMS_P2;Temp;Humidity;BMP_temperature;BMP_pressure;BME280_temperature;BME280_humidity;BME280_pressure;Samples;Min_cycle;Max_cycle;Signal;HPM_P1;HPM_P2
2023/05/22 00:00:34;;;;;;;14.23;12.83;;;17.50;99.90;;;;;;5051581;28;20747;-74
2023/05/22 00:03:02;;;;;;;15.80;14.30;;;17.40;99.90;;;;;;5051954;28;20185;-74
2023/05/22 00:05:28;;;;;;;15.40;13.83;;;17.40;99.90;;;;;;5051652;28;20459;-74
2023/05/22 00:07:53;;;;;;;14.80;13.00;;;17.40;99.90;;;;;;5033940;28;21026;-74
2023/05/22 00:10:19;;;;;;;15.80;14.33;;;17.40;99.90;;;;;;5051479;28;20455;-74
2023/05/22 00:12:45;;;;;;;15.23;13.73;;;17.40;99.90;;;;;;5051748;28;20186;-74
2023/05/22 00:15:11;;;;;;;15.77;14.17;;;17.50;99.90;;;;;;5033679;28;20243;-74
2023/05/22 00:17:36;;;;;;;16.53;14.73;;;17.50;99.90;;;;;;5048401;28;20641;-74
2023/05/22 00:20:05;;;;;;;16.50;14.47;;;17.50;99.90;;;;;;5014017;28;20424;-74
2023/05/22 00:22:34;;;;;;;17.23;15.47;;;17.60;99.90;;;;;;5034795;28;20184;-74
2023/05/22 00:25:01;;;;;;;15.47;13.93;;;17.60;99.90;;;;;;5033553;28;20478;-74
2023/05/22 00:27:27;;;;;;;15.90;14.27;;;17.50;99.90;;;;;;5051270;28;20885;-74
2023/05/22 00:29:52;;;;;;;15.13;13.63;;;17.50;99.90;;;;;;5051451;28;20404;-73
2023/05/22 00:32:18;;;;;;;16.37;14.77;;;17.50;99.90;;;;;;5052001;28;20741;-74
2023/05/22 00:34:44;;;;;;;15.70;14.10;;;17.60;99.90;;;;;;5051409;28;20177;-74
2023/05/22 00:37:09;;;;;;;15.87;13.83;;;17.60;99.90;;;;;;5051296;28;20210;-74
2023/05/22 00:39:35;;;;;;;14.93;13.53;;;17.60;99.90;;;;;;5051628;28;20705;-74
2023/05/22 00:42:01;;;;;;;15.60;14.10;;;17.60;99.90;;;;;;5051387;28;20265;-74
2023/05/22 00:44:27;;;;;;;15.73;14.10;;;17.50;99.90;;;;;;5051323;28;20186;-74
2023/05/22 00:46:53;;;;;;;16.00;14.33;;;17.50;99.90;;;;;;5050917;28;20213;-73
2023/05/22 00:49:18;;;;;;;17.73;15.10;;;17.40;99.90;;;;;;5049760;28;20408;-74
2023/05/22 00:51:44;;;;;;;15.63;14.10;;;17.40;99.90;;;;;;5050100;28;20633;-74
2023/05/22 00:54:12;;;;;;;15.40;13.70;;;17.40;99.90;;;;;;5051220;28;20273;-74
2023/05/22 00:56:38;;;;;;;18.03;15.10;;;17.40;99.90;;;;;;5051108;28;20568;-74
2023/05/22 00:59:03;;;;;;;16.73;14.93;;;17.30;99.90;;;;;;5050987;28;20422;-74
2023/05/22 01:01:32;;;;;;;15.40;13.73;;;17.30;99.90;;;;;;5050749;28;20186;-74
2023/05/22 01:04:00;;;;;;;16.80;15.10;;;17.20;99.90;;;;;;5050910;28;20178;-74
2023/05/22 01:06:26;;;;;;;16.73;15.13;;;17.30;99.90;;;;;;5050889;28;20460;-74
2023/05/22 01:08:52;;;;;;;16.90;15.27;;;17.30;99.90;;;;;;5032676;28;20462;-74
2023/05/22 01:11:27;;;;;;;16.83;15.13;;;17.30;99.90;;;;;;5050741;28;20436;-74
2023/05/22 01:14:02;;;;;;;17.17;15.00;;;17.30;99.90;;;;;;5050814;28;20295;-74
2023/05/22 01:16:36;;;;;;;16.00;14.40;;;17.30;99.90;;;;;;5050736;28;20436;-74
2023/05/22 01:19:40;;;;;;;16.10;14.47;;;17.30;99.90;;;;;;5050619;28;20416;-74
2023/05/22 01:22:23;;;;;;;17.50;15.80;;;17.20;99.90;;;;;;4971981;28;20425;-73
2023/05/22 01:25:04;;;;;;;17.47;15.67;;;17.10;99.90;;;;;;5025384;28;20932;-74
2023/05/22 01:27:54;;;;;;;17.47;14.47;;;17.10;99.90;;;;;;5023355;28;20755;-74
2023/05/22 01:30:23;;;;;;;16.20;14.50;;;17.10;99.90;;;;;;5050372;28;20415;-74
2023/05/22 01:32:50;;;;;;;18.23;15.40;;;17.00;99.90;;;;;;5050656;28;20418;-74
2023/05/22 01:35:18;;;;;;;16.10;14.40;;;17.00;99.90;;;;;;5050234;28;20413;-74
2023/05/22 01:37:44;;;;;;;17.90;15.57;;;16.90;99.90;;;;;;5050216;28;20941;-74
2023/05/22 01:40:11;;;;;;;17.17;15.47;;;16.90;99.90;;;;;;5049379;28;20924;-74
2023/05/22 01:42:40;;;;;;;17.53;15.73;;;16.90;99.90;;;;;;5050517;28;20466;-73
2023/05/22 01:45:09;;;;;;;17.30;15.50;;;16.90;99.90;;;;;;5032383;28;20419;-74
2023/05/22 01:47:35;;;;;;;18.80;16.80;;;16.90;99.90;;;;;;5049719;28;20470;-74
2023/05/22 01:50:01;;;;;;;17.20;15.10;;;16.90;99.90;;;;;;5048553;28;20425;-74
2023/05/22 01:52:48;;;;;;;18.33;16.43;;;16.90;99.90;;;;;;5032385;28;20178;-74
2023/05/22 01:55:46;;;;;;;20.37;18.17;;;17.00;99.90;;;;;;5032226;28;20900;-74
2023/05/22 01:58:48;;;;;;;21.00;17.50;;;17.00;99.90;;;;;;5015214;28;20961;-74
2023/05/22 02:01:18;;;;;;;20.07;17.90;;;17.00;99.90;;;;;;5024983;28;20427;-74
2023/05/22 02:03:45;;;;;;;19.60;17.63;;;17.10;99.90;;;;;;5049534;28;20416;-74
2023/05/22 02:06:13;;;;;;;20.50;18.30;;;17.10;99.90;;;;;;5032002;28;20471;-74
2023/05/22 02:08:41;;;;;;;18.33;16.40;;;17.10;99.90;;;;;;5049497;28;20451;-74
2023/05/22 02:11:09;;;;;;;20.33;18.17;;;17.00;99.90;;;;;;5031884;28;20412;-74
2023/05/22 02:13:36;;;;;;;19.63;17.53;;;17.00;99.90;;;;;;5049656;28;20408;-74
2023/05/22 02:16:02;;;;;;;20.10;18.00;;;17.10;99.90;;;;;;5032071;28;20818;-74
2023/05/22 02:18:29;;;;;;;19.40;17.27;;;17.00;99.90;;;;;;5031666;28;20412;-74
2023/05/22 02:20:58;;;;;;;19.37;17.47;;;17.00;99.90;;;;;;5049299;28;20419;-74
2023/05/22 02:23:25;;;;;;;21.63;19.17;;;16.90;99.90;;;;;;5049251;28;20781;-74
2023/05/22 02:25:51;;;;;;;18.97;17.00;;;16.90;99.90;;;;;;5049602;28;20441;-74
2023/05/22 02:28:17;;;;;;;19.37;17.33;;;16.90;99.90;;;;;;5015218;28;20838;-74
2023/05/22 02:30:43;;;;;;;18.53;16.53;;;16.80;99.90;;;;;;5049291;28;20413;-74
2023/05/22 02:33:08;;;;;;;19.50;17.60;;;16.80;99.90;;;;;;5048991;28;20231;-74
2023/05/22 02:35:34;;;;;;;19.80;17.70;;;16.90;99.90;;;;;;5031619;28;20170;-74
2023/05/22 02:38:00;;;;;;;17.77;15.97;;;16.90;99.90;;;;;;5049127;28;20182;-74
2023/05/22 02:40:26;;;;;;;21.23;17.47;;;16.80;99.90;;;;;;5048623;28;20416;-74
2023/05/22 02:42:51;;;;;;;19.50;17.40;;;16.80;99.90;;;;;;5031293;28;20470;-74
2023/05/22 02:45:17;;;;;;;18.70;16.73;;;16.80;99.90;;;;;;5031447;28;20170;-74
2023/05/22 02:47:43;;;;;;;20.50;18.37;;;16.80;99.90;;;;;;5031197;28;20238;-74
2023/05/22 02:50:09;;;;;;;18.97;17.00;;;16.70;99.90;;;;;;5047607;28;20177;-74
2023/05/22 02:52:35;;;;;;;18.20;16.40;;;16.70;99.90;;;;;;5031156;28;20211;-74
2023/05/22 02:55:03;;;;;;;18.63;16.67;;;16.60;99.90;;;;;;5048958;28;21081;-74
2023/05/22 02:57:29;;;;;;;18.47;16.50;;;16.60;99.90;;;;;;5048688;28;20435;-74
2023/05/22 02:59:56;;;;;;;18.23;16.00;;;16.50;99.90;;;;;;5048958;28;20420;-74
2023/05/22 03:02:25;;;;;;;18.00;16.20;;;16.50;99.90;;;;;;5048823;28;20177;-74
2023/05/22 03:04:50;;;;;;;19.73;17.70;;;16.50;99.90;;;;;;5048762;28;20492;-73
2023/05/22 03:07:16;;;;;;;18.23;16.37;;;16.50;99.90;;;;;;5048343;28;20546;-74
2023/05/22 03:09:42;;;;;;;18.57;16.57;;;16.40;99.90;;;;;;5030942;28;20197;-74
2023/05/22 03:12:08;;;;;;;18.63;16.70;;;16.40;99.90;;;;;;5048909;28;20169;-74
2023/05/22 03:14:34;;;;;;;18.97;16.97;;;16.40;99.90;;;;;;5030117;28;20260;-74
2023/05/22 03:17:00;;;;;;;19.77;17.40;;;16.40;99.90;;;;;;5048332;28;20607;-74
2023/05/22 03:19:25;;;;;;;17.97;16.20;;;16.40;99.90;;;;;;5048577;28;20495;-74
2023/05/22 03:21:51;;;;;;;18.13;16.23;;;16.30;99.90;;;;;;5031097;28;20178;-74
2023/05/22 03:24:17;;;;;;;18.30;16.10;;;16.40;99.90;;;;;;5030617;28;20200;-74
2023/05/22 03:26:42;;;;;;;17.77;15.97;;;16.30;99.90;;;;;;5048472;28;20284;-74
2023/05/22 03:29:08;;;;;;;18.37;16.30;;;16.30;99.90;;;;;;5048554;28;20174;-74
2023/05/22 03:31:35;;;;;;;18.20;16.43;;;16.20;99.90;;;;;;5048344;28;20257;-75
2023/05/22 03:34:01;;;;;;;18.20;16.27;;;16.20;99.90;;;;;;5048414;28;20404;-74
2023/05/22 03:36:28;;;;;;;17.70;15.80;;;16.30;99.90;;;;;;5030897;28;20497;-74
2023/05/22 03:38:54;;;;;;;16.80;14.90;;;16.20;99.90;;;;;;5047116;28;20442;-74
2023/05/22 03:41:20;;;;;;;17.67;15.87;;;16.20;99.90;;;;;;5048454;28;20507;-74
2023/05/22 03:43:45;;;;;;;17.93;16.13;;;16.20;99.90;;;;;;5030350;28;20178;-74
2023/05/22 03:46:11;;;;;;;16.00;14.40;;;16.20;99.90;;;;;;5048515;28;20462;-74
2023/05/22 03:48:37;;;;;;;17.00;15.30;;;16.10;99.90;;;;;;5048073;28;20178;-74
2023/05/22 03:51:03;;;;;;;19.03;17.03;;;16.10;99.90;;;;;;5046918;28;20193;-74
2023/05/22 03:53:29;;;;;;;18.07;16.17;;;16.10;99.90;;;;;;5047998;28;20505;-74
2023/05/22 03:55:56;;;;;;;19.13;17.13;;;16.00;99.90;;;;;;5048733;28;20206;-74
2023/05/22 03:58:24;;;;;;;19.10;17.10;;;16.10;99.90;;;;;;5048095;28;20189;-74
2023/05/22 04:00:51;;;;;;;17.73;16.00;;;16.10;99.90;;;;;;5030451;28;20416;-74
2023/05/22 04:03:18;;;;;;;18.53;16.57;;;16.10;99.90;;;;;;5030161;28;20420;-74
2023/05/22 04:05:47;;;;;;;19.47;17.47;;;16.10;99.90;;;;;;5048560;28;20436;-74
2023/05/22 04:08:12;;;;;;;20.53;18.33;;;16.10;99.90;;;;;;5048027;28;20460;-74
2023/05/22 04:10:38;;;;;;;20.63;17.87;;;16.10;99.90;;;;;;5048262;28;20586;-74
2023/05/22 04:13:04;;;;;;;22.30;19.17;;;16.10;99.90;;;;;;5048178;28;20216;-74
2023/05/22 04:15:33;;;;;;;19.53;17.53;;;16.10;99.90;;;;;;5048450;28;20178;-74
2023/05/22 04:17:59;;;;;;;22.37;19.50;;;16.10;99.90;;;;;;5048109;28;20424;-74
2023/05/22 04:20:32;;;;;;;21.63;19.30;;;16.10;99.90;;;;;;5048227;28;20466;-74
2023/05/22 04:22:57;;;;;;;21.07;17.87;;;16.10;99.90;;;;;;5047990;28;20444;-74
2023/05/22 04:25:23;;;;;;;20.53;18.33;;;16.10;99.90;;;;;;5050496;28;20447;-74
2023/05/22 04:27:49;;;;;;;23.30;19.80;;;16.00;99.90;;;;;;5051690;28;20953;-74
2023/05/22 04:30:15;;;;;;;25.03;22.13;;;16.10;99.90;;;;;;5052097;28;20170;-73
2023/05/22 04:32:42;;;;;;;24.27;20.80;;;16.10;99.90;;;;;;5034132;28;20409;-74
2023/05/22 04:35:08;;;;;;;27.10;24.17;;;16.10;99.90;;;;;;5051824;28;20415;-74
2023/05/22 04:37:35;;;;;;;26.30;21.67;;;16.10;99.90;;;;;;5051491;28;20439;-73
2023/05/22 04:40:06;;;;;;;26.93;23.00;;;16.20;99.90;;;;;;5032699;28;20420;-74
2023/05/22 04:42:33;;;;;;;29.93;24.17;;;16.20;99.90;;;;;;5031209;28;20432;-74
2023/05/22 04:44:59;;;;;;;28.50;23.50;;;16.20;99.90;;;;;;5046802;28;20428;-74
2023/05/22 04:47:27;;;;;;;25.70;22.43;;;16.30;99.90;;;;;;5051174;28;20459;-74
2023/05/22 04:49:55;;;;;;;26.27;21.20;;;16.30;99.90;;;;;;5048056;28;20524;-73
2023/05/22 04:52:21;;;;;;;26.00;21.47;;;16.30;99.90;;;;;;5051333;28;20434;-74
2023/05/22 04:54:48;;;;;;;28.70;21.30;;;16.30;99.90;;;;;;5050922;28;20420;-74
2023/05/22 04:57:16;;;;;;;25.47;21.00;;;16.30;99.90;;;;;;5051105;28;20432;-74
2023/05/22 04:59:41;;;;;;;25.30;22.20;;;16.30;99.90;;;;;;5051022;28;21205;-74
2023/05/22 05:02:07;;;;;;;26.60;21.40;;;16.40;99.90;;;;;;5047825;28;20436;-73
2023/05/22 05:04:33;;;;;;;24.20;21.60;;;16.40;99.90;;;;;;5050406;28;20620;-73
2023/05/22 05:06:59;;;;;;;26.10;22.80;;;16.40;99.90;;;;;;5032865;28;20690;-73
2023/05/22 05:09:24;;;;;;;25.50;22.70;;;16.40;99.90;;;;;;5050733;28;20412;-73
2023/05/22 05:11:51;;;;;;;26.20;21.47;;;16.40;99.90;;;;;;5051233;28;20244;-73
2023/05/22 05:14:17;;;;;;;27.33;22.10;;;16.40;99.90;;;;;;5049758;28;20258;-74
2023/05/22 05:16:43;;;;;;;25.73;22.80;;;16.40;99.90;;;;;;5050611;28;20516;-74
2023/05/22 05:19:09;;;;;;;23.77;20.97;;;16.50;99.90;;;;;;5032632;28;20239;-74
2023/05/22 05:21:34;;;;;;;25.70;22.87;;;16.50;99.90;;;;;;5050069;28;20424;-74
2023/05/22 05:24:00;;;;;;;24.57;21.33;;;16.50;99.90;;;;;;5050132;28;20320;-73
2023/05/22 05:26:26;;;;;;;25.27;22.70;;;16.60;99.90;;;;;;5032772;28;20209;-73
2023/05/22 05:28:52;;;;;;;25.77;22.97;;;16.70;99.90;;;;;;5050377;28;20416;-74
2023/05/22 05:31:19;;;;;;;24.67;21.73;;;16.70;99.90;;;;;;5050554;28;20166;-73
2023/05/22 05:33:45;;;;;;;24.37;21.83;;;16.80;99.90;;;;;;5049975;28;20452;-73
2023/05/22 05:36:11;;;;;;;25.50;22.80;;;16.80;99.90;;;;;;5049962;28;20437;-73
2023/05/22 05:38:37;;;;;;;24.93;22.33;;;16.90;99.90;;;;;;5049557;28;20411;-73
2023/05/22 05:41:03;;;;;;;27.13;24.13;;;17.00;99.90;;;;;;5050224;28;20166;-74
2023/05/22 05:43:28;;;;;;;25.20;22.50;;;17.00;99.90;;;;;;5049369;28;20189;-74
2023/05/22 05:45:54;;;;;;;26.20;22.67;;;17.00;99.90;;;;;;5050256;28;20224;-74
2023/05/22 05:48:20;;;;;;;29.20;24.73;;;17.10;99.90;;;;;;5032001;28;20228;-74
2023/05/22 05:50:45;;;;;;;28.60;21.77;;;17.10;99.90;;;;;;5050132;28;20253;-73
2023/05/22 05:53:11;;;;;;;23.47;20.97;;;17.20;99.90;;;;;;5050023;28;20253;-73
2023/05/22 05:55:37;;;;;;;25.00;22.30;;;17.20;99.90;;;;;;5050106;28;20657;-74
2023/05/22 05:58:02;;;;;;;25.57;22.90;;;17.20;99.90;;;;;;5049930;28;20170;-74
2023/05/22 06:00:28;;;;;;;26.40;21.90;;;17.30;99.90;;;;;;5049270;28;20265;-73
2023/05/22 06:02:54;;;;;;;23.47;20.97;;;17.30;99.90;;;;;;5049340;28;20188;-73
2023/05/22 06:05:21;;;;;;;25.10;22.10;;;17.40;99.90;;;;;;5046540;28;20224;-74
2023/05/22 06:07:47;;;;;;;22.90;20.50;;;17.40;99.90;;;;;;5046785;28;20475;-74
2023/05/22 06:10:13;;;;;;;26.13;22.17;;;17.50;99.90;;;;;;5044370;28;20424;-74
2023/05/22 06:12:39;;;;;;;25.30;22.57;;;17.50;99.90;;;;;;5031080;28;20443;-74
2023/05/22 06:15:08;;;;;;;24.10;21.60;;;17.60;99.90;;;;;;5048811;28;20447;-73
2023/05/22 06:17:35;;;;;;;25.37;22.67;;;17.60;99.90;;;;;;5028999;28;20436;-74
2023/05/22 06:20:03;;;;;;;24.83;22.07;;;17.70;99.90;;;;;;5048018;28;20432;-74
2023/05/22 06:22:29;;;;;;;24.87;22.27;;;17.70;99.90;;;;;;5049191;28;20432;-73
2023/05/22 06:24:54;;;;;;;25.07;21.50;;;17.80;99.90;;;;;;5048829;28;20408;-73
2023/05/22 06:27:21;;;;;;;23.73;21.30;;;17.80;99.90;;;;;;5048686;28;20209;-73
2023/05/22 06:29:50;;;;;;;25.00;21.67;;;17.90;99.90;;;;;;5048604;28;20173;-74
2023/05/22 06:32:16;;;;;;;24.53;22.13;;;18.00;99.90;;;;;;5049676;28;20408;-74
2023/05/22 06:34:43;;;;;;;25.13;22.47;;;18.10;99.90;;;;;;5048880;28;20470;-73
2023/05/22 06:37:10;;;;;;;26.50;21.57;;;18.20;99.90;;;;;;5049171;28;20439;-74
2023/05/22 06:39:36;;;;;;;24.37;21.77;;;18.30;99.90;;;;;;5049145;28;21169;-72
2023/05/22 06:42:02;;;;;;;23.40;21.00;;;18.30;99.90;;;;;;5031789;28;20416;-73
2023/05/22 06:44:27;;;;;;;27.47;21.30;;;18.40;99.90;;;;;;5048713;28;20185;-73
2023/05/22 06:46:53;;;;;;;23.83;20.30;;;18.40;99.90;;;;;;5048783;28;20583;-74
2023/05/22 06:49:19;;;;;;;23.47;21.00;;;18.50;99.90;;;;;;5048118;28;20208;-74
2023/05/22 06:51:45;;;;;;;22.47;20.17;;;18.60;99.90;;;;;;5048957;28;20177;-74
2023/05/22 06:54:12;;;;;;;22.43;20.03;;;18.70;99.90;;;;;;5048772;28;20423;-74
2023/05/22 06:56:39;;;;;;;23.50;21.03;;;18.90;99.90;;;;;;5031069;28;20197;-74
2023/05/22 06:59:05;;;;;;;24.10;20.13;;;19.00;99.90;;;;;;5030953;28;21020;-74
2023/05/22 07:01:31;;;;;;;23.87;21.47;;;19.00;99.90;;;;;;5048790;28;20546;-74
2023/05/22 07:04:03;;;;;;;21.53;19.10;;;19.00;99.90;;;;;;5047592;28;20448;-74
2023/05/22 07:06:32;;;;;;;21.83;18.30;;;19.10;99.90;;;;;;5048964;28;20452;-74
2023/05/22 07:08:58;;;;;;;23.63;21.13;;;19.20;99.90;;;;;;5048566;28;20404;-74
2023/05/22 07:11:24;;;;;;;23.90;20.60;;;19.20;99.90;;;;;;5048589;28;20409;-74
2023/05/22 07:13:50;;;;;;;22.30;19.90;;;19.30;99.90;;;;;;5048786;28;20416;-74
2023/05/22 07:16:16;;;;;;;20.47;18.47;;;19.30;99.90;;;;;;5048759;28;20436;-74
2023/05/22 07:18:44;;;;;;;21.57;19.27;;;19.40;99.90;;;;;;5030853;28;20188;-74
2023/05/22 07:21:11;;;;;;;21.20;19.10;;;19.50;99.90;;;;;;5048629;28;20170;-74
2023/05/22 07:23:36;;;;;;;20.13;18.03;;;19.60;99.90;;;;;;5028444;28;20424;-74
2023/05/22 07:26:02;;;;;;;21.73;19.43;;;19.70;99.90;;;;;;5048700;28;20832;-74
2023/05/22 07:28:29;;;;;;;22.07;18.70;;;19.70;99.90;;;;;;5048386;28;20208;-74
2023/05/22 07:30:56;;;;;;;20.57;18.33;;;19.80;99.90;;;;;;5048476;28;20181;-74
2023/05/22 07:33:22;;;;;;;23.00;19.63;;;19.80;99.90;;;;;;5048457;28;20434;-74
2023/05/22 07:35:47;;;;;;;21.43;19.10;;;19.90;99.90;;;;;;5048719;28;21252;-73
2023/05/22 07:38:13;;;;;;;21.80;18.73;;;19.90;99.90;;;;;;5048857;28;20235;-74
2023/05/22 07:40:39;;;;;;;21.37;19.07;;;20.00;99.90;;;;;;5048369;28;20178;-74
2023/05/22 07:43:04;;;;;;;20.93;18.70;;;20.00;99.90;;;;;;5048415;28;20574;-74
2023/05/22 07:45:30;;;;;;;19.80;17.80;;;20.00;99.90;;;;;;5048384;28;20198;-74
2023/05/22 07:47:57;;;;;;;19.80;17.07;;;20.10;99.90;;;;;;5048439;28;20649;-74
2023/05/22 07:50:25;;;;;;;20.63;17.50;;;20.10;99.90;;;;;;5048202;28;20421;-74
2023/05/22 07:52:51;;;;;;;19.73;17.77;;;20.20;99.90;;;;;;5048583;28;20417;-74
2023/05/22 07:55:17;;;;;;;18.70;16.63;;;20.20;99.90;;;;;;5048375;28;20412;-74
2023/05/22 07:57:43;;;;;;;19.43;17.43;;;20.30;99.90;;;;;;5048088;28;20790;-74
2023/05/22 08:00:11;;;;;;;18.77;16.80;;;20.40;99.90;;;;;;5049982;28;20223;-74
2023/05/22 08:02:37;;;;;;;20.67;17.50;;;20.40;99.90;;;;;;5052466;28;20416;-74
2023/05/22 08:05:03;;;;;;;21.80;19.03;;;20.50;99.90;;;;;;5052211;28;20422;-74
2023/05/22 08:07:29;;;;;;;18.73;16.83;;;20.60;99.90;;;;;;5051738;28;20217;-74
2023/05/22 08:09:55;;;;;;;21.30;19.07;;;20.60;99.90;;;;;;5052006;28;20420;-74
2023/05/22 08:12:20;;;;;;;21.07;18.10;;;20.60;99.90;;;;;;5052241;28;20427;-74
2023/05/22 08:14:46;;;;;;;20.23;18.23;;;20.70;99.90;;;;;;5031949;28;20195;-74
2023/05/22 08:17:12;;;;;;;17.80;16.00;;;20.70;99.90;;;;;;5044300;28;20213;-74
2023/05/22 08:19:37;;;;;;;21.00;18.83;;;20.70;99.90;;;;;;5045905;28;20181;-74
2023/05/22 08:22:03;;;;;;;22.00;19.70;;;20.70;99.90;;;;;;5032424;28;20535;-74
2023/05/22 08:24:29;;;;;;;19.43;17.60;;;20.70;99.90;;;;;;5016592;28;20198;-74
2023/05/22 08:26:57;;;;;;;21.13;18.97;;;20.80;99.90;;;;;;5032716;28;20202;-74
2023/05/22 08:29:23;;;;;;;19.90;18.00;;;20.80;99.90;;;;;;5050230;28;20408;-74
2023/05/22 08:31:49;;;;;;;20.77;18.60;;;20.90;99.90;;;;;;5051321;28;20440;-74
2023/05/22 08:34:14;;;;;;;22.30;19.37;;;21.00;99.90;;;;;;5050804;28;20469;-74
2023/05/22 08:36:40;;;;;;;19.47;17.37;;;21.00;99.90;;;;;;5034212;28;20511;-74
2023/05/22 08:39:08;;;;;;;22.90;20.60;;;21.10;99.90;;;;;;5051578;28;20209;-74
2023/05/22 08:41:34;;;;;;;22.63;18.20;;;21.20;99.90;;;;;;5033690;28;20186;-74
2023/05/22 08:44:00;;;;;;;23.00;20.60;;;21.20;99.90;;;;;;5051326;28;20482;-74
2023/05/22 08:46:27;;;;;;;22.77;19.20;;;21.30;99.90;;;;;;5051594;28;20482;-73
2023/05/22 08:48:57;;;;;;;55.47;27.37;;;21.30;99.90;;;;;;5051017;28;20190;-73
2023/05/22 08:51:28;;;;;;;40.53;23.50;;;21.40;99.90;;;;;;5051047;28;21019;-73
2023/05/22 08:53:56;;;;;;;23.53;20.00;;;21.40;99.90;;;;;;5051253;28;20440;-73
2023/05/22 08:56:22;;;;;;;22.80;20.40;;;21.50;99.90;;;;;;5051391;28;20432;-73
2023/05/22 08:58:50;;;;;;;22.20;19.90;;;21.60;99.90;;;;;;5050653;28;20909;-73
2023/05/22 09:01:16;;;;;;;25.93;23.20;;;21.70;99.90;;;;;;5033032;28;20452;-73
2023/05/22 09:03:43;;;;;;;30.53;22.87;;;21.80;99.90;;;;;;5049078;28;20444;-73
2023/05/22 09:06:09;;;;;;;27.70;24.70;;;21.90;99.90;;;;;;5048690;28;20424;-73
2023/05/22 09:08:37;;;;;;;29.00;25.90;;;21.90;99.90;;;;;;5049933;28;21109;-73
2023/05/22 09:11:03;;;;;;;33.07;28.43;;;22.00;99.90;;;;;;5049481;28;20937;-74
2023/05/22 09:13:30;;;;;;;33.83;28.20;;;22.10;99.90;;;;;;5033014;28;20409;-74
2023/05/22 09:16:09;;;;;;;40.57;31.43;;;22.20;99.90;;;;;;5051033;28;20193;-73
2023/05/22 09:18:36;;;;;;;34.37;30.80;;;22.30;99.90;;;;;;5050694;28;20494;-73
2023/05/22 09:21:03;;;;;;;40.40;31.20;;;22.30;99.90;;;;;;5050639;28;20408;-73
2023/05/22 09:23:29;;;;;;;39.40;35.30;;;22.50;99.90;;;;;;5050373;28;20456;-73
2023/05/22 09:25:56;;;;;;;48.17;40.33;;;22.50;99.90;;;;;;5046071;28;20530;-73
2023/05/22 09:28:22;;;;;;;45.23;40.23;;;22.70;99.90;;;;;;5048903;28;21042;-74
2023/05/22 09:30:50;;;;;;;43.67;37.80;;;22.80;99.90;;;;;;5054229;28;20424;-74
2023/05/22 09:33:16;;;;;;;44.87;36.60;;;22.80;99.90;;;;;;5050202;28;20440;-74
2023/05/22 09:35:42;;;;;;;39.53;35.30;;;22.90;99.90;;;;;;5051220;28;20797;-74
2023/05/22 09:38:12;;;;;;;42.30;36.17;;;22.90;99.90;;;;;;5049980;28;20428;-73
2023/05/22 09:40:39;;;;;;;41.10;36.90;;;22.90;99.90;;;;;;5049906;28;20416;-74
2023/05/22 09:43:09;;;;;;;50.20;45.00;;;22.90;99.90;;;;;;5036530;28;20427;-74
2023/05/22 09:45:36;;;;;;;51.47;46.17;;;22.90;99.90;;;;;;5034244;28;20444;-74
2023/05/22 09:48:05;;;;;;;47.13;42.33;;;22.90;99.90;;;;;;5050030;28;20459;-74
2023/05/22 09:50:35;;;;;;;45.13;40.27;;;22.90;99.90;;;;;;5049673;28;20416;-73
2023/05/22 09:53:02;;;;;;;41.77;37.30;;;22.90;99.90;;;;;;5049957;28;20439;-73
2023/05/22 09:55:28;;;;;;;42.63;38.63;;;23.00;99.90;;;;;;5049772;28;20425;-73
2023/05/22 09:57:55;;;;;;;46.57;41.60;;;23.00;99.90;;;;;;5049794;28;20412;-74
2023/05/22 10:00:22;;;;;;;44.73;40.07;;;23.10;99.90;;;;;;5053603;28;20435;-74
2023/05/22 10:03:02;;;;;;;44.33;39.90;;;23.10;99.90;;;;;;5049572;28;20416;-73
2023/05/22 10:05:30;;;;;;;49.33;44.47;;;23.20;99.90;;;;;;5049749;28;20424;-74
2023/05/22 10:08:03;;;;;;;45.60;41.10;;;23.20;99.90;;;;;;5049322;28;21094;-73
2023/05/22 10:10:28;;;;;;;48.30;43.30;;;23.10;99.90;;;;;;5031632;28;20482;-73
2023/05/22 10:13:00;;;;;;;47.07;42.60;;;23.20;99.90;;;;;;5049404;28;20424;-74
2023/05/22 10:15:25;;;;;;;52.13;46.57;;;23.30;99.90;;;;;;5031789;28;20193;-74
2023/05/22 10:17:52;;;;;;;52.17;46.87;;;23.30;99.90;;;;;;5041735;28;20424;-74
2023/05/22 10:20:19;;;;;;;51.80;46.27;;;23.20;99.90;;;;;;5049384;28;20272;-73
2023/05/22 10:22:47;;;;;;;54.60;49.00;;;23.30;99.90;;;;;;5031191;28;20429;-74
2023/05/22 10:25:13;;;;;;;57.27;51.67;;;23.40;99.90;;;;;;5031426;28;20886;-73
2023/05/22 10:27:40;;;;;;;53.83;48.40;;;23.40;99.90;;;;;;5048619;28;20566;-74
2023/05/22 10:30:20;;;;;;;48.80;43.80;;;23.40;99.90;;;;;;5049244;28;20178;-74
2023/05/22 10:32:49;;;;;;;49.27;44.57;;;23.40;99.90;;;;;;5049093;28;20416;-74
2023/05/22 10:35:24;;;;;;;48.53;43.70;;;23.50;99.90;;;;;;5049122;28;21018;-74
2023/05/22 10:37:53;;;;;;;47.93;43.30;;;23.50;99.90;;;;;;5048560;28;20458;-73
2023/05/22 10:40:29;;;;;;;53.13;47.43;;;23.50;99.90;;;;;;5049162;28;20553;-73
2023/05/22 10:42:59;;;;;;;57.50;50.60;;;23.60;99.90;;;;;;5048922;28;20408;-74
2023/05/22 10:45:26;;;;;;;53.13;47.87;;;23.60;99.90;;;;;;5049024;28;20412;-74
2023/05/22 10:48:06;;;;;;;48.97;43.97;;;23.60;99.90;;;;;;5049569;28;20452;-74
2023/05/22 10:50:33;;;;;;;49.17;44.10;;;23.60;99.90;;;;;;5049290;28;20503;-74
2023/05/22 10:53:23;;;;;;;46.50;41.97;;;23.70;99.90;;;;;;5049000;28;20495;-74
2023/05/22 10:55:54;;;;;;;50.60;45.13;;;23.70;99.90;;;;;;5031589;28;20463;-74
2023/05/22 10:58:28;;;;;;;47.63;42.80;;;23.70;99.90;;;;;;5030332;28;20422;-74
2023/05/22 11:01:12;;;;;;;45.37;40.90;;;23.70;99.90;;;;;;5031465;28;21002;-74
2023/05/22 11:04:01;;;;;;;43.73;39.53;;;23.70;99.90;;;;;;5048809;28;20546;-74
2023/05/22 11:06:40;;;;;;;41.37;36.93;;;23.80;99.90;;;;;;5049124;28;20436;-74
2023/05/22 11:09:19;;;;;;;43.10;39.07;;;23.80;99.90;;;;;;5048765;28;20411;-74
2023/05/22 11:11:46;;;;;;;41.67;37.43;;;23.90;99.90;;;;;;5031422;28;20409;-74
2023/05/22 11:14:14;;;;;;;48.00;43.00;;;23.90;99.90;;;;;;5048827;28;20419;-74
2023/05/22 11:16:41;;;;;;;46.00;41.33;;;24.00;99.90;;;;;;5049075;28;20513;-74
2023/05/22 11:19:09;;;;;;;42.83;38.63;;;23.90;99.90;;;;;;5030814;28;20506;-74
2023/05/22 11:21:45;;;;;;;42.97;38.67;;;24.00;99.90;;;;;;5048678;28;20424;-74
2023/05/22 11:24:14;;;;;;;42.40;38.17;;;24.00;99.90;;;;;;5048390;28;20424;-74
2023/05/22 11:26:43;;;;;;;42.03;37.87;;;24.00;99.90;;;;;;5048700;28;20456;-74
2023/05/22 11:29:09;;;;;;;44.73;40.17;;;24.00;99.90;;;;;;5048938;28;20447;-74
2023/05/22 11:31:36;;;;;;;45.73;41.13;;;24.00;99.90;;;;;;5048764;28;20412;-74
2023/05/22 11:34:02;;;;;;;42.50;38.20;;;24.00;99.90;;;;;;5049676;28;20417;-74
2023/05/22 11:36:28;;;;;;;42.43;38.20;;;24.00;99.90;;;;;;5055300;28;20436;-74
2023/05/22 11:38:58;;;;;;;39.33;35.40;;;24.10;99.90;;;;;;5054294;28;20419;-74
2023/05/22 11:41:32;;;;;;;43.47;39.10;;;24.10;99.90;;;;;;5055307;28;20554;-74
2023/05/22 11:43:58;;;;;;;40.30;36.30;;;24.10;99.90;;;;;;5055214;28;20404;-74
2023/05/22 11:46:24;;;;;;;37.73;33.83;;;24.20;99.90;;;;;;5055120;28;20459;-74
2023/05/22 11:48:51;;;;;;;37.90;34.07;;;24.20;99.90;;;;;;5055122;28;20413;-74
2023/05/22 11:51:20;;;;;;;41.33;37.23;;;24.20;99.90;;;;;;5055132;28;20416;-74
2023/05/22 11:53:46;;;;;;;38.93;34.83;;;24.20;99.90;;;;;;5055038;28;20427;-74
2023/05/22 11:56:12;;;;;;;40.03;35.73;;;24.30;99.90;;;;;;5055353;28;20423;-74
2023/05/22 11:58:38;;;;;;;37.03;33.40;;;24.30;99.90;;;;;;5054071;28;20491;-74
2023/05/22 12:01:05;;;;;;;35.40;31.90;;;24.30;99.90;;;;;;5037162;28;20527;-74
2023/05/22 12:03:31;;;;;;;35.27;31.77;;;24.40;99.90;;;;;;5055025;28;20177;-74
2023/05/22 12:05:57;;;;;;;39.43;35.63;;;24.40;99.90;;;;;;5055143;28;20511;-74
2023/05/22 12:08:27;;;;;;;37.03;33.23;;;24.40;99.90;;;;;;5054944;28;20463;-74
2023/05/22 12:10:53;;;;;;;36.03;32.23;;;24.40;99.90;;;;;;5054919;28;20489;-74
2023/05/22 12:13:29;;;;;;;33.73;30.43;;;24.40;99.90;;;;;;5055049;28;20444;-74
2023/05/22 12:15:58;;;;;;;34.47;30.97;;;24.50;99.90;;;;;;5055071;28;20447;-74
2023/05/22 12:18:25;;;;;;;37.00;31.60;;;24.50;99.90;;;;;;5055049;28;20417;-74
2023/05/22 12:20:54;;;;;;;35.33;31.53;;;24.60;99.90;;;;;;5036978;28;20412;-74
2023/05/22 12:23:25;;;;;;;33.17;29.77;;;24.60;99.90;;;;;;5037046;28;20451;-74
2023/05/22 12:26:07;;;;;;;34.13;30.53;;;24.60;99.90;;;;;;5055038;28;20448;-74
2023/05/22 12:28:33;;;;;;;31.50;28.47;;;24.60;99.90;;;;;;5054695;28;20509;-74
2023/05/22 12:30:59;;;;;;;33.07;29.90;;;24.60;99.90;;;;;;5036735;28;21115;-74